sensor_id;sensor_type;location;lat;lon;timestamp;P1;durP1;ratioP1;P2;durP2;ratioP2
73239;SDS011;61452;40.054;4.110;2023-07-13T00:02:27;14.00;;;5.07;;
73239;SDS011;61452;40.054;4.110;2023-07-13T00:07:30;17.38;;;5.70;;
73239;SDS011;61452;40.054;4.110;2023-07-13T00:12:34;11.00;;;5.10;;
73239;SDS011;61452;40.054;4.110;2023-07-13T00:17:38;13.60;;;5.20;;
73239;SDS011;61452;40.054;4.110;2023-07-13T00:22:40;12.55;;;5.13;;
73239;SDS011;61452;40.054;4.110;2023-07-13T00:27:43;15.48;;;5.15;;
73239;SDS011;61452;40.054;4.110;2023-07-13T00:32:45;12.85;;;4.55;;
73239;SDS011;61452;40.054;4.110;2023-07-13T00:37:47;12.20;;;4.50;;
73239;SDS011;61452;40.054;4.110;2023-07-13T00:42:51;13.30;;;4.00;;
73239;SDS011;61452;40.054;4.110;2023-07-13T00:47:55;8.13;;;4.00;;
73239;SDS011;61452;40.054;4.110;2023-07-13T00:52:59;9.15;;;3.80;;
73239;SDS011;61452;40.054;4.110;2023-07-13T00:58:01;8.88;;;3.65;;
73239;SDS011;61452;40.054;4.110;2023-07-13T01:03:06;11.18;;;3.33;;
73239;SDS011;61452;40.054;4.110;2023-07-13T01:08:10;10.43;;;3.15;;
73239;SDS011;61452;40.054;4.110;2023-07-13T01:13:12;9.77;;;3.42;;
73239;SDS011;61452;40.054;4.110;2023-07-13T01:18:25;14.50;;;4.22;;
73239;SDS011;61452;40.054;4.110;2023-07-13T01:23:30;13.98;;;3.88;;
73239;SDS011;61452;40.054;4.110;2023-07-13T01:28:33;12.25;;;3.67;;
73239;SDS011;61452;40.054;4.110;2023-07-13T01:33:40;10.63;;;3.35;;
73239;SDS011;61452;40.054;4.110;2023-07-13T01:38:42;9.25;;;3.33;;
73239;SDS011;61452;40.054;4.110;2023-07-13T01:43:45;15.05;;;4.20;;
73239;SDS011;61452;40.054;4.110;2023-07-13T01:48:48;16.45;;;4.03;;
73239;SDS011;61452;40.054;4.110;2023-07-13T01:53:50;14.02;;;3.55;;
73239;SDS011;61452;40.054;4.110;2023-07-13T01:58:52;12.82;;;4.03;;
73239;SDS011;61452;40.054;4.110;2023-07-13T02:03:54;13.57;;;4.10;;
73239;SDS011;61452;40.054;4.110;2023-07-13T02:08:57;11.63;;;3.83;;
73239;SDS011;61452;40.054;4.110;2023-07-13T02:14:00;15.63;;;4.45;;
73239;SDS011;61452;40.054;4.110;2023-07-13T02:19:03;16.52;;;3.80;;
73239;SDS011;61452;40.054;4.110;2023-07-13T02:24:05;14.25;;;3.70;;
73239;SDS011;61452;40.054;4.110;2023-07-13T02:29:08;12.60;;;4.15;;
73239;SDS011;61452;40.054;4.110;2023-07-13T02:34:11;10.18;;;3.60;;
73239;SDS011;61452;40.054;4.110;2023-07-13T02:39:13;12.05;;;3.47;;
73239;SDS011;61452;40.054;4.110;2023-07-13T02:44:16;11.98;;;3.53;;
73239;SDS011;61452;40.054;4.110;2023-07-13T02:49:18;17.65;;;4.00;;
73239;SDS011;61452;40.054;4.110;2023-07-13T02:54:20;14.57;;;4.07;;
73239;SDS011;61452;40.054;4.110;2023-07-13T02:59:23;14.35;;;3.72;;
73239;SDS011;61452;40.054;4.110;2023-07-13T03:04:25;17.02;;;3.53;;
73239;SDS011;61452;40.054;4.110;2023-07-13T03:09:28;14.55;;;3.30;;
73239;SDS011;61452;40.054;4.110;2023-07-13T03:14:30;10.88;;;3.60;;
73239;SDS011;61452;40.054;4.110;2023-07-13T03:19:34;14.52;;;3.55;;
73239;SDS011;61452;40.054;4.110;2023-07-13T03:24:38;13.40;;;3.38;;
73239;SDS011;61452;40.054;4.110;2023-07-13T03:29:41;9.63;;;3.38;;
73239;SDS011;61452;40.054;4.110;2023-07-13T03:34:43;13.90;;;2.85;;
73239;SDS011;61452;40.054;4.110;2023-07-13T03:39:46;11.80;;;3.38;;
73239;SDS011;61452;40.054;4.110;2023-07-13T03:44:49;12.77;;;3.13;;
73239;SDS011;61452;40.054;4.110;2023-07-13T03:49:54;13.70;;;3.05;;
73239;SDS011;61452;40.054;4.110;2023-07-13T03:54:56;14.00;;;3.83;;
73239;SDS011;61452;40.054;4.110;2023-07-13T03:59:59;12.30;;;3.50;;
73239;SDS011;61452;40.054;4.110;2023-07-13T04:05:01;13.48;;;3.25;;
73239;SDS011;61452;40.054;4.110;2023-07-13T04:10:04;12.65;;;3.35;;
73239;SDS011;61452;40.054;4.110;2023-07-13T04:15:06;15.48;;;3.95;;
73239;SDS011;61452;40.054;4.110;2023-07-13T04:20:09;14.05;;;3.47;;
73239;SDS011;61452;40.054;4.110;2023-07-13T04:25:12;16.70;;;4.70;;
73239;SDS011;61452;40.054;4.110;2023-07-13T04:30:14;15.35;;;3.63;;
73239;SDS011;61452;40.054;4.110;2023-07-13T04:35:16;15.40;;;4.00;;
73239;SDS011;61452;40.054;4.110;2023-07-13T04:40:20;14.90;;;4.03;;
73239;SDS011;61452;40.054;4.110;2023-07-13T04:45:22;13.57;;;3.80;;
73239;SDS011;61452;40.054;4.110;2023-07-13T04:50:26;18.00;;;4.93;;
73239;SDS011;61452;40.054;4.110;2023-07-13T04:55:28;16.85;;;4.25;;
73239;SDS011;61452;40.054;4.110;2023-07-13T05:00:32;17.75;;;4.68;;
73239;SDS011;61452;40.054;4.110;2023-07-13T05:05:34;18.42;;;4.53;;
73239;SDS011;61452;40.054;4.110;2023-07-13T05:10:36;15.85;;;4.80;;
73239;SDS011;61452;40.054;4.110;2023-07-13T05:15:38;21.08;;;5.00;;
73239;SDS011;61452;40.054;4.110;2023-07-13T05:20:40;16.63;;;4.13;;
73239;SDS011;61452;40.054;4.110;2023-07-13T05:25:43;19.55;;;4.32;;
73239;SDS011;61452;40.054;4.110;2023-07-13T05:30:46;17.55;;;4.07;;
73239;SDS011;61452;40.054;4.110;2023-07-13T05:35:51;20.35;;;5.15;;
73239;SDS011;61452;40.054;4.110;2023-07-13T05:40:54;21.15;;;5.15;;
73239;SDS011;61452;40.054;4.110;2023-07-13T05:45:57;20.05;;;5.25;;
73239;SDS011;61452;40.054;4.110;2023-07-13T05:51:00;18.30;;;4.57;;
73239;SDS011;61452;40.054;4.110;2023-07-13T05:56:03;23.73;;;5.28;;
73239;SDS011;61452;40.054;4.110;2023-07-13T06:01:06;17.77;;;4.63;;
73239;SDS011;61452;40.054;4.110;2023-07-13T06:06:12;19.13;;;5.65;;
73239;SDS011;61452;40.054;4.110;2023-07-13T06:11:18;29.27;;;6.10;;
73239;SDS011;61452;40.054;4.110;2023-07-13T06:16:22;21.85;;;5.30;;
73239;SDS011;61452;40.054;4.110;2023-07-13T06:21:24;23.67;;;5.32;;
73239;SDS011;61452;40.054;4.110;2023-07-13T06:26:26;25.05;;;4.85;;
73239;SDS011;61452;40.054;4.110;2023-07-13T06:36:34;19.30;;;5.63;;
73239;SDS011;61452;40.054;4.110;2023-07-13T06:41:38;18.27;;;5.22;;
73239;SDS011;61452;40.054;4.110;2023-07-13T06:46:44;19.00;;;5.22;;
73239;SDS011;61452;40.054;4.110;2023-07-13T06:51:46;23.52;;;5.35;;
73239;SDS011;61452;40.054;4.110;2023-07-13T06:56:48;25.05;;;6.40;;
73239;SDS011;61452;40.054;4.110;2023-07-13T07:01:50;21.60;;;5.30;;
73239;SDS011;61452;40.054;4.110;2023-07-13T07:06:52;19.90;;;4.95;;
73239;SDS011;61452;40.054;4.110;2023-07-13T07:11:58;20.27;;;5.30;;
73239;SDS011;61452;40.054;4.110;2023-07-13T07:17:05;22.83;;;5.07;;
73239;SDS011;61452;40.054;4.110;2023-07-13T07:22:07;20.70;;;5.15;;
73239;SDS011;61452;40.054;4.110;2023-07-13T07:27:09;24.63;;;5.97;;
73239;SDS011;61452;40.054;4.110;2023-07-13T07:32:14;17.88;;;4.82;;
73239;SDS011;61452;40.054;4.110;2023-07-13T07:37:36;18.73;;;4.80;;
73239;SDS011;61452;40.054;4.110;2023-07-13T07:42:41;19.65;;;5.35;;
73239;SDS011;61452;40.054;4.110;2023-07-13T07:47:43;19.20;;;5.05;;
73239;SDS011;61452;40.054;4.110;2023-07-13T07:52:46;19.90;;;4.72;;
73239;SDS011;61452;40.054;4.110;2023-07-13T07:57:48;19.52;;;4.63;;
73239;SDS011;61452;40.054;4.110;2023-07-13T08:02:54;21.63;;;5.32;;
73239;SDS011;61452;40.054;4.110;2023-07-13T08:08:16;20.08;;;5.03;;
73239;SDS011;61452;40.054;4.110;2023-07-13T08:13:18;23.55;;;6.07;;
73239;SDS011;61452;40.054;4.110;2023-07-13T08:18:21;17.77;;;5.15;;
73239;SDS011;61452;40.054;4.110;2023-07-13T08:23:23;18.67;;;4.82;;
73239;SDS011;61452;40.054;4.110;2023-07-13T08:28:25;16.65;;;3.90;;
73239;SDS011;61452;40.054;4.110;2023-07-13T08:33:28;15.85;;;3.88;;
73239;SDS011;61452;40.054;4.110;2023-07-13T08:38:30;24.23;;;5.07;;
73239;SDS011;61452;40.054;4.110;2023-07-13T08:43:35;20.20;;;4.80;;
73239;SDS011;61452;40.054;4.110;2023-07-13T08:48:52;24.20;;;4.63;;
73239;SDS011;61452;40.054;4.110;2023-07-13T08:53:58;21.38;;;5.90;;
73239;SDS011;61452;40.054;4.110;2023-07-13T08:59:14;15.20;;;3.85;;
73239;SDS011;61452;40.054;4.110;2023-07-13T09:04:25;19.73;;;3.92;;
73239;SDS011;61452;40.054;4.110;2023-07-13T09:14:50;26.42;;;5.13;;
73239;SDS011;61452;40.054;4.110;2023-07-13T09:19:59;15.18;;;4.20;;
73239;SDS011;61452;40.054;4.110;2023-07-13T09:25:12;15.90;;;3.90;;
73239;SDS011;61452;40.054;4.110;2023-07-13T09:30:42;19.92;;;5.32;;
73239;SDS011;61452;40.054;4.110;2023-07-13T09:35:58;17.90;;;4.28;;
73239;SDS011;61452;40.054;4.110;2023-07-13T09:46:55;22.90;;;4.65;;
73239;SDS011;61452;40.054;4.110;2023-07-13T09:52:02;24.02;;;4.88;;
73239;SDS011;61452;40.054;4.110;2023-07-13T09:57:13;18.10;;;3.88;;
73239;SDS011;61452;40.054;4.110;2023-07-13T10:02:28;22.83;;;4.47;;
73239;SDS011;61452;40.054;4.110;2023-07-13T10:07:37;24.52;;;5.00;;
73239;SDS011;61452;40.054;4.110;2023-07-13T10:20:03;26.25;;;4.07;;
73239;SDS011;61452;40.054;4.110;2023-07-13T10:25:34;17.73;;;4.20;;
73239;SDS011;61452;40.054;4.110;2023-07-13T10:30:52;21.50;;;4.47;;
73239;SDS011;61452;40.054;4.110;2023-07-13T10:36:28;18.65;;;4.13;;
73239;SDS011;61452;40.054;4.110;2023-07-13T10:41:50;14.82;;;3.38;;
73239;SDS011;61452;40.054;4.110;2023-07-13T10:47:40;18.10;;;3.72;;
73239;SDS011;61452;40.054;4.110;2023-07-13T10:52:55;18.23;;;4.03;;
73239;SDS011;61452;40.054;4.110;2023-07-13T10:58:33;19.02;;;4.07;;
73239;SDS011;61452;40.054;4.110;2023-07-13T11:04:00;26.60;;;3.92;;
73239;SDS011;61452;40.054;4.110;2023-07-13T11:09:39;20.70;;;4.50;;
73239;SDS011;61452;40.054;4.110;2023-07-13T11:14:42;14.70;;;3.88;;
73239;SDS011;61452;40.054;4.110;2023-07-13T11:20:42;15.85;;;4.00;;
73239;SDS011;61452;40.054;4.110;2023-07-13T11:35:40;14.43;;;3.47;;
73239;SDS011;61452;40.054;4.110;2023-07-13T11:40:47;14.55;;;3.85;;
73239;SDS011;61452;40.054;4.110;2023-07-13T11:45:56;19.83;;;4.07;;
73239;SDS011;61452;40.054;4.110;2023-07-13T11:51:01;23.05;;;4.00;;
73239;SDS011;61452;40.054;4.110;2023-07-13T11:56:09;19.13;;;3.47;;
73239;SDS011;61452;40.054;4.110;2023-07-13T12:01:17;16.23;;;3.20;;
73239;SDS011;61452;40.054;4.110;2023-07-13T12:06:25;13.90;;;2.65;;
73239;SDS011;61452;40.054;4.110;2023-07-13T12:11:30;16.15;;;4.13;;
73239;SDS011;61452;40.054;4.110;2023-07-13T12:16:38;19.20;;;3.78;;
73239;SDS011;61452;40.054;4.110;2023-07-13T12:21:41;15.13;;;4.20;;
73239;SDS011;61452;40.054;4.110;2023-07-13T12:26:43;15.20;;;3.13;;
73239;SDS011;61452;40.054;4.110;2023-07-13T12:31:47;14.27;;;3.47;;
73239;SDS011;61452;40.054;4.110;2023-07-13T12:36:51;16.02;;;3.50;;
73239;SDS011;61452;40.054;4.110;2023-07-13T12:42:09;14.90;;;2.55;;
73239;SDS011;61452;40.054;4.110;2023-07-13T12:47:26;15.43;;;3.80;;
73239;SDS011;61452;40.054;4.110;2023-07-13T12:57:32;13.50;;;2.53;;
73239;SDS011;61452;40.054;4.110;2023-07-13T13:02:40;19.08;;;3.65;;
73239;SDS011;61452;40.054;4.110;2023-07-13T13:07:43;20.73;;;4.22;;
73239;SDS011;61452;40.054;4.110;2023-07-13T13:12:49;17.38;;;3.45;;
73239;SDS011;61452;40.054;4.110;2023-07-13T13:17:52;19.15;;;4.20;;
73239;SDS011;61452;40.054;4.110;2023-07-13T13:22:54;18.25;;;4.13;;
73239;SDS011;61452;40.054;4.110;2023-07-13T13:27:56;14.65;;;3.10;;
73239;SDS011;61452;40.054;4.110;2023-07-13T13:32:59;15.20;;;4.18;;
73239;SDS011;61452;40.054;4.110;2023-07-13T13:38:01;17.27;;;4.40;;
73239;SDS011;61452;40.054;4.110;2023-07-13T13:43:07;15.95;;;3.58;;
73239;SDS011;61452;40.054;4.110;2023-07-13T13:48:19;13.73;;;3.28;;
73239;SDS011;61452;40.054;4.110;2023-07-13T13:53:31;12.10;;;3.15;;
73239;SDS011;61452;40.054;4.110;2023-07-13T13:58:33;13.48;;;3.25;;
73239;SDS011;61452;40.054;4.110;2023-07-13T14:03:36;10.98;;;3.17;;
73239;SDS011;61452;40.054;4.110;2023-07-13T14:08:39;16.92;;;3.60;;
73239;SDS011;61452;40.054;4.110;2023-07-13T14:13:42;16.73;;;4.00;;
73239;SDS011;61452;40.054;4.110;2023-07-13T14:18:48;13.90;;;3.05;;
73239;SDS011;61452;40.054;4.110;2023-07-13T14:23:51;9.70;;;2.47;;
73239;SDS011;61452;40.054;4.110;2023-07-13T14:28:54;16.23;;;3.45;;
73239;SDS011;61452;40.054;4.110;2023-07-13T14:33:58;15.60;;;3.17;;
73239;SDS011;61452;40.054;4.110;2023-07-13T14:39:01;12.27;;;2.58;;
73239;SDS011;61452;40.054;4.110;2023-07-13T14:44:13;11.07;;;2.53;;
73239;SDS011;61452;40.054;4.110;2023-07-13T14:59:27;12.90;;;2.22;;
73239;SDS011;61452;40.054;4.110;2023-07-13T15:04:29;13.77;;;3.22;;
73239;SDS011;61452;40.054;4.110;2023-07-13T15:09:32;11.80;;;2.55;;
73239;SDS011;61452;40.054;4.110;2023-07-13T15:14:34;14.38;;;3.70;;
73239;SDS011;61452;40.054;4.110;2023-07-13T15:19:36;15.13;;;3.53;;
73239;SDS011;61452;40.054;4.110;2023-07-13T15:24:38;12.90;;;2.90;;
73239;SDS011;61452;40.054;4.110;2023-07-13T15:29:40;13.43;;;3.58;;
73239;SDS011;61452;40.054;4.110;2023-07-13T15:34:44;8.80;;;3.17;;
73239;SDS011;61452;40.054;4.110;2023-07-13T15:44:49;13.50;;;2.45;;
73239;SDS011;61452;40.054;4.110;2023-07-13T15:49:51;13.05;;;2.83;;
73239;SDS011;61452;40.054;4.110;2023-07-13T15:54:53;15.02;;;2.97;;
73239;SDS011;61452;40.054;4.110;2023-07-13T15:59:56;13.27;;;2.80;;
73239;SDS011;61452;40.054;4.110;2023-07-13T16:04:58;9.13;;;2.63;;
73239;SDS011;61452;40.054;4.110;2023-07-13T16:10:00;10.57;;;3.17;;
73239;SDS011;61452;40.054;4.110;2023-07-13T16:15:03;14.57;;;3.50;;
73239;SDS011;61452;40.054;4.110;2023-07-13T16:20:07;10.48;;;2.97;;
73239;SDS011;61452;40.054;4.110;2023-07-13T16:25:16;8.70;;;2.90;;
73239;SDS011;61452;40.054;4.110;2023-07-13T16:30:25;12.23;;;2.90;;
73239;SDS011;61452;40.054;4.110;2023-07-13T16:35:32;13.52;;;3.17;;
73239;SDS011;61452;40.054;4.110;2023-07-13T16:40:36;9.63;;;2.80;;
73239;SDS011;61452;40.054;4.110;2023-07-13T16:45:38;13.55;;;2.78;;
73239;SDS011;61452;40.054;4.110;2023-07-13T16:50:45;10.52;;;2.58;;
73239;SDS011;61452;40.054;4.110;2023-07-13T16:55:54;15.95;;;2.83;;
73239;SDS011;61452;40.054;4.110;2023-07-13T17:01:01;10.52;;;2.65;;
73239;SDS011;61452;40.054;4.110;2023-07-13T17:06:18;9.50;;;2.85;;
73239;SDS011;61452;40.054;4.110;2023-07-13T17:11:25;16.27;;;3.38;;
73239;SDS011;61452;40.054;4.110;2023-07-13T17:16:28;12.50;;;2.90;;
73239;SDS011;61452;40.054;4.110;2023-07-13T17:21:32;11.57;;;2.55;;
73239;SDS011;61452;40.054;4.110;2023-07-13T17:26:34;10.85;;;2.50;;
73239;SDS011;61452;40.054;4.110;2023-07-13T17:31:37;9.00;;;2.80;;
73239;SDS011;61452;40.054;4.110;2023-07-13T17:36:39;8.20;;;2.15;;
73239;SDS011;61452;40.054;4.110;2023-07-13T17:41:42;8.65;;;2.70;;
73239;SDS011;61452;40.054;4.110;2023-07-13T17:46:46;7.53;;;1.88;;
73239;SDS011;61452;40.054;4.110;2023-07-13T17:51:50;9.80;;;2.30;;
73239;SDS011;61452;40.054;4.110;2023-07-13T17:56:52;8.18;;;2.58;;
73239;SDS011;61452;40.054;4.110;2023-07-13T18:01:54;16.58;;;2.70;;
73239;SDS011;61452;40.054;4.110;2023-07-13T18:06:57;12.90;;;2.38;;
73239;SDS011;61452;40.054;4.110;2023-07-13T18:12:10;11.50;;;2.58;;
73239;SDS011;61452;40.054;4.110;2023-07-13T18:17:12;10.05;;;2.60;;
73239;SDS011;61452;40.054;4.110;2023-07-13T18:22:16;8.52;;;2.78;;
73239;SDS011;61452;40.054;4.110;2023-07-13T18:27:19;10.43;;;2.22;;
73239;SDS011;61452;40.054;4.110;2023-07-13T18:32:22;10.80;;;2.50;;
73239;SDS011;61452;40.054;4.110;2023-07-13T18:37:24;7.72;;;2.13;;
73239;SDS011;61452;40.054;4.110;2023-07-13T18:42:26;10.48;;;2.20;;
73239;SDS011;61452;40.054;4.110;2023-07-13T18:47:28;13.40;;;2.83;;
73239;SDS011;61452;40.054;4.110;2023-07-13T18:52:36;9.50;;;2.15;;
73239;SDS011;61452;40.054;4.110;2023-07-13T18:57:38;12.40;;;2.50;;
73239;SDS011;61452;40.054;4.110;2023-07-13T19:02:43;11.50;;;2.63;;
73239;SDS011;61452;40.054;4.110;2023-07-13T19:07:46;10.45;;;2.40;;
73239;SDS011;61452;40.054;4.110;2023-07-13T19:12:50;10.35;;;2.15;;
73239;SDS011;61452;40.054;4.110;2023-07-13T19:17:54;9.63;;;2.78;;
73239;SDS011;61452;40.054;4.110;2023-07-13T19:22:58;10.15;;;2.70;;
73239;SDS011;61452;40.054;4.110;2023-07-13T19:28:19;7.65;;;2.45;;
73239;SDS011;61452;40.054;4.110;2023-07-13T19:33:34;11.32;;;2.38;;
73239;SDS011;61452;40.054;4.110;2023-07-13T19:38:36;8.88;;;2.30;;
73239;SDS011;61452;40.054;4.110;2023-07-13T19:43:38;12.07;;;3.08;;
73239;SDS011;61452;40.054;4.110;2023-07-13T19:48:41;11.55;;;2.55;;
73239;SDS011;61452;40.054;4.110;2023-07-13T19:53:43;5.97;;;2.42;;
73239;SDS011;61452;40.054;4.110;2023-07-13T19:58:46;9.52;;;2.25;;
73239;SDS011;61452;40.054;4.110;2023-07-13T20:03:49;7.60;;;2.38;;
73239;SDS011;61452;40.054;4.110;2023-07-13T20:08:51;8.05;;;2.50;;
73239;SDS011;61452;40.054;4.110;2023-07-13T20:13:54;9.82;;;2.63;;
73239;SDS011;61452;40.054;4.110;2023-07-13T20:18:56;5.90;;;1.85;;
73239;SDS011;61452;40.054;4.110;2023-07-13T20:23:58;4.72;;;2.00;;
73239;SDS011;61452;40.054;4.110;2023-07-13T20:29:00;8.05;;;2.33;;
73239;SDS011;61452;40.054;4.110;2023-07-13T20:34:04;8.65;;;2.63;;
73239;SDS011;61452;40.054;4.110;2023-07-13T20:39:08;9.15;;;2.35;;
73239;SDS011;61452;40.054;4.110;2023-07-13T20:44:11;10.73;;;3.30;;
73239;SDS011;61452;40.054;4.110;2023-07-13T20:49:13;8.57;;;2.05;;
73239;SDS011;61452;40.054;4.110;2023-07-13T20:54:16;6.57;;;2.05;;
73239;SDS011;61452;40.054;4.110;2023-07-13T20:59:21;8.73;;;2.38;;
73239;SDS011;61452;40.054;4.110;2023-07-13T21:04:23;7.57;;;2.20;;
73239;SDS011;61452;40.054;4.110;2023-07-13T21:09:25;9.20;;;2.15;;
73239;SDS011;61452;40.054;4.110;2023-07-13T21:14:30;7.28;;;2.20;;
73239;SDS011;61452;40.054;4.110;2023-07-13T21:19:32;9.52;;;2.30;;
73239;SDS011;61452;40.054;4.110;2023-07-13T21:24:34;6.85;;;1.95;;
73239;SDS011;61452;40.054;4.110;2023-07-13T21:29:36;9.13;;;2.40;;
73239;SDS011;61452;40.054;4.110;2023-07-13T21:34:39;6.88;;;2.15;;
73239;SDS011;61452;40.054;4.110;2023-07-13T21:39:41;8.80;;;2.78;;
73239;SDS011;61452;40.054;4.110;2023-07-13T21:44:44;7.32;;;2.30;;
73239;SDS011;61452;40.054;4.110;2023-07-13T21:49:46;6.93;;;2.50;;
73239;SDS011;61452;40.054;4.110;2023-07-13T21:54:49;7.10;;;2.22;;
73239;SDS011;61452;40.054;4.110;2023-07-13T21:59:53;10.93;;;2.83;;
73239;SDS011;61452;40.054;4.110;2023-07-13T22:04:55;5.38;;;1.90;;
73239;SDS011;61452;40.054;4.110;2023-07-13T22:09:57;7.72;;;2.97;;
73239;SDS011;61452;40.054;4.110;2023-07-13T22:14:59;7.68;;;2.20;;
73239;SDS011;61452;40.054;4.110;2023-07-13T22:20:01;6.18;;;2.10;;
73239;SDS011;61452;40.054;4.110;2023-07-13T22:25:07;5.93;;;1.92;;
73239;SDS011;61452;40.054;4.110;2023-07-13T22:35:13;8.88;;;2.40;;
73239;SDS011;61452;40.054;4.110;2023-07-13T22:40:17;8.77;;;2.10;;
73239;SDS011;61452;40.054;4.110;2023-07-13T22:45:19;8.07;;;2.10;;
73239;SDS011;61452;40.054;4.110;2023-07-13T22:50:21;5.93;;;1.67;;
73239;SDS011;61452;40.054;4.110;2023-07-13T22:55:23;7.32;;;2.20;;
73239;SDS011;61452;40.054;4.110;2023-07-13T23:00:26;8.15;;;2.50;;
73239;SDS011;61452;40.054;4.110;2023-07-13T23:05:28;8.85;;;2.47;;
73239;SDS011;61452;40.054;4.110;2023-07-13T23:16:10;6.93;;;2.17;;
73239;SDS011;61452;40.054;4.110;2023-07-13T23:21:16;10.00;;;2.60;;
73239;SDS011;61452;40.054;4.110;2023-07-13T23:26:22;6.43;;;2.10;;
73239;SDS011;61452;40.054;4.110;2023-07-13T23:31:29;5.93;;;1.95;;
73239;SDS011;61452;40.054;4.110;2023-07-13T23:36:37;12.40;;;2.97;;
73239;SDS011;61452;40.054;4.110;2023-07-13T23:41:40;17.98;;;3.60;;
73239;SDS011;61452;40.054;4.110;2023-07-13T23:56:58;15.32;;;3.35;;
